sensor_id;sensor_type;location;lat;lon;timestamp;temperature;humidity
74171;DHT22;62526;50.948;6.590;2024-02-15T00:01:01;16.20;99.90
74171;DHT22;62526;50.948;6.590;2024-02-15T00:03:27;16.30;99.90
74171;DHT22;62526;50.948;6.590;2024-02-15T00:05:54;16.20;99.90
74171;DHT22;62526;50.948;6.590;2024-02-15T00:08:22;16.30;99.90
74171;DHT22;62526;50.948;6.590;2024-02-15T00:10:49;16.40;99.90
74171;DHT22;62526;50.948;6.590;2024-02-15T00:13:16;16.40;99.90
74171;DHT22;62526;50.948;6.590;2024-02-15T00:15:43;16.40;99.90
74171;DHT22;62526;50.948;6.590;2024-02-15T00:18:10;16.50;99.90
74171;DHT22;62526;50.948;6.590;2024-02-15T00:20:38;16.50;99.90
74171;DHT22;62526;50.948;6.590;2024-02-15T00:23:04;16.50;99.90
74171;DHT22;62526;50.948;6.590;2024-02-15T00:25:32;16.40;99.90
74171;DHT22;62526;50.948;6.590;2024-02-15T00:27:58;16.40;99.90
74171;DHT22;62526;50.948;6.590;2024-02-15T00:30:27;16.30;99.90
74171;DHT22;62526;50.948;6.590;2024-02-15T00:32:54;16.60;99.90
74171;DHT22;62526;50.948;6.590;2024-02-15T00:35:21;16.70;99.90
74171;DHT22;62526;50.948;6.590;2024-02-15T00:37:48;16.80;99.90
74171;DHT22;62526;50.948;6.590;2024-02-15T00:40:14;16.90;99.90
74171;DHT22;62526;50.948;6.590;2024-02-15T00:42:42;17.00;99.90
74171;DHT22;62526;50.948;6.590;2024-02-15T00:45:09;16.90;99.90
74171;DHT22;62526;50.948;6.590;2024-02-15T00:47:36;16.90;99.90
74171;DHT22;62526;50.948;6.590;2024-02-15T00:50:05;16.90;99.90
74171;DHT22;62526;50.948;6.590;2024-02-15T00:52:34;16.90;99.90
74171;DHT22;62526;50.948;6.590;2024-02-15T00:55:00;16.80;99.90
74171;DHT22;62526;50.948;6.590;2024-02-15T00:57:27;16.90;99.90
74171;DHT22;62526;50.948;6.590;2024-02-15T00:59:54;17.00;99.90
74171;DHT22;62526;50.948;6.590;2024-02-15T01:02:21;17.00;99.90
74171;DHT22;62526;50.948;6.590;2024-02-15T01:04:49;17.20;99.90
74171;DHT22;62526;50.948;6.590;2024-02-15T01:07:16;17.30;99.90
74171;DHT22;62526;50.948;6.590;2024-02-15T01:09:42;17.40;99.90
74171;DHT22;62526;50.948;6.590;2024-02-15T01:12:09;17.50;99.90
74171;DHT22;62526;50.948;6.590;2024-02-15T01:14:37;17.50;99.90
74171;DHT22;62526;50.948;6.590;2024-02-15T01:17:03;17.50;99.90
74171;DHT22;62526;50.948;6.590;2024-02-15T01:19:30;17.20;99.90
74171;DHT22;62526;50.948;6.590;2024-02-15T01:21:57;17.20;99.90
74171;DHT22;62526;50.948;6.590;2024-02-15T01:24:24;17.10;99.90
74171;DHT22;62526;50.948;6.590;2024-02-15T01:26:51;17.10;99.90
74171;DHT22;62526;50.948;6.590;2024-02-15T01:29:17;17.10;99.90
74171;DHT22;62526;50.948;6.590;2024-02-15T01:31:44;17.00;99.90
74171;DHT22;62526;50.948;6.590;2024-02-15T01:34:12;17.20;99.90
74171;DHT22;62526;50.948;6.590;2024-02-15T01:36:39;17.20;99.90
74171;DHT22;62526;50.948;6.590;2024-02-15T01:39:06;17.20;99.90
74171;DHT22;62526;50.948;6.590;2024-02-15T01:41:33;17.30;99.90
74171;DHT22;62526;50.948;6.590;2024-02-15T01:44:00;17.30;99.90
74171;DHT22;62526;50.948;6.590;2024-02-15T01:46:27;17.30;99.90
74171;DHT22;62526;50.948;6.590;2024-02-15T01:48:55;17.30;99.90
74171;DHT22;62526;50.948;6.590;2024-02-15T01:51:22;17.30;99.90
74171;DHT22;62526;50.948;6.590;2024-02-15T01:53:49;17.30;99.90
74171;DHT22;62526;50.948;6.590;2024-02-15T01:56:16;17.30;99.90
74171;DHT22;62526;50.948;6.590;2024-02-15T01:58:43;17.40;99.90
74171;DHT22;62526;50.948;6.590;2024-02-15T02:01:11;17.40;99.90
74171;DHT22;62526;50.948;6.590;2024-02-15T02:03:38;17.40;99.90
74171;DHT22;62526;50.948;6.590;2024-02-15T02:06:05;17.40;99.90
74171;DHT22;62526;50.948;6.590;2024-02-15T02:08:33;17.40;99.90
74171;DHT22;62526;50.948;6.590;2024-02-15T02:10:59;17.40;99.90
74171;DHT22;62526;50.948;6.590;2024-02-15T02:13:26;16.60;99.90
74171;DHT22;62526;50.948;6.590;2024-02-15T02:15:53;17.40;99.90
74171;DHT22;62526;50.948;6.590;2024-02-15T02:18:20;17.50;99.90
74171;DHT22;62526;50.948;6.590;2024-02-15T02:20:47;17.50;99.90
74171;DHT22;62526;50.948;6.590;2024-02-15T02:23:14;17.50;99.90
74171;DHT22;62526;50.948;6.590;2024-02-15T02:25:41;17.50;99.90
74171;DHT22;62526;50.948;6.590;2024-02-15T02:28:09;17.50;99.90
74171;DHT22;62526;50.948;6.590;2024-02-15T02:33:20;17.30;99.90
74171;DHT22;62526;50.948;6.590;2024-02-15T02:35:47;17.30;99.90
74171;DHT22;62526;50.948;6.590;2024-02-15T02:38:15;17.20;99.90
74171;DHT22;62526;50.948;6.590;2024-02-15T02:40:42;17.10;99.90
74171;DHT22;62526;50.948;6.590;2024-02-15T02:43:09;17.10;99.90
74171;DHT22;62526;50.948;6.590;2024-02-15T02:45:36;17.00;99.90
74171;DHT22;62526;50.948;6.590;2024-02-15T02:48:04;17.00;99.90
74171;DHT22;62526;50.948;6.590;2024-02-15T02:50:31;17.00;99.90
74171;DHT22;62526;50.948;6.590;2024-02-15T02:52:58;17.00;99.90
74171;DHT22;62526;50.948;6.590;2024-02-15T02:55:25;16.90;99.90
74171;DHT22;62526;50.948;6.590;2024-02-15T02:57:52;16.90;99.90
74171;DHT22;62526;50.948;6.590;2024-02-15T03:00:19;16.80;99.90
74171;DHT22;62526;50.948;6.590;2024-02-15T03:02:47;16.70;99.90
74171;DHT22;62526;50.948;6.590;2024-02-15T03:05:14;16.70;99.90
74171;DHT22;62526;50.948;6.590;2024-02-15T03:07:41;16.70;99.90
74171;DHT22;62526;50.948;6.590;2024-02-15T03:10:08;16.60;99.90
74171;DHT22;62526;50.948;6.590;2024-02-15T03:12:37;16.60;99.90
74171;DHT22;62526;50.948;6.590;2024-02-15T03:15:04;16.60;99.90
74171;DHT22;62526;50.948;6.590;2024-02-15T03:17:31;16.60;99.90
74171;DHT22;62526;50.948;6.590;2024-02-15T03:19:58;16.60;99.90
74171;DHT22;62526;50.948;6.590;2024-02-15T03:22:27;16.60;99.90
74171;DHT22;62526;50.948;6.590;2024-02-15T03:24:52;16.50;99.90
74171;DHT22;62526;50.948;6.590;2024-02-15T03:27:19;16.60;99.90
74171;DHT22;62526;50.948;6.590;2024-02-15T03:29:46;16.50;99.90
74171;DHT22;62526;50.948;6.590;2024-02-15T03:32:13;16.50;99.90
74171;DHT22;62526;50.948;6.590;2024-02-15T03:34:43;16.50;99.90
74171;DHT22;62526;50.948;6.590;2024-02-15T03:37:10;16.40;99.90
74171;DHT22;62526;50.948;6.590;2024-02-15T03:39:37;16.30;99.90
74171;DHT22;62526;50.948;6.590;2024-02-15T03:42:04;16.30;99.90
74171;DHT22;62526;50.948;6.590;2024-02-15T03:44:31;16.30;99.90
74171;DHT22;62526;50.948;6.590;2024-02-15T03:46:57;16.30;99.90
74171;DHT22;62526;50.948;6.590;2024-02-15T03:49:24;16.20;99.90
74171;DHT22;62526;50.948;6.590;2024-02-15T03:51:51;16.20;99.90
74171;DHT22;62526;50.948;6.590;2024-02-15T03:54:19;16.20;99.90
74171;DHT22;62526;50.948;6.590;2024-02-15T03:56:48;16.10;99.90
74171;DHT22;62526;50.948;6.590;2024-02-15T03:59:15;16.00;99.90
74171;DHT22;62526;50.948;6.590;2024-02-15T04:01:42;16.00;99.90
74171;DHT22;62526;50.948;6.590;2024-02-15T04:04:08;16.00;99.90
74171;DHT22;62526;50.948;6.590;2024-02-15T04:06:35;16.00;99.90
74171;DHT22;62526;50.948;6.590;2024-02-15T04:09:02;16.00;99.90
74171;DHT22;62526;50.948;6.590;2024-02-15T04:11:29;16.00;99.90
74171;DHT22;62526;50.948;6.590;2024-02-15T04:13:56;16.00;99.90
74171;DHT22;62526;50.948;6.590;2024-02-15T04:16:23;15.90;99.90
74171;DHT22;62526;50.948;6.590;2024-02-15T04:18:50;15.90;99.90
74171;DHT22;62526;50.948;6.590;2024-02-15T04:21:17;15.90;99.90
74171;DHT22;62526;50.948;6.590;2024-02-15T04:23:45;16.00;99.90
74171;DHT22;62526;50.948;6.590;2024-02-15T04:26:11;16.00;99.90
74171;DHT22;62526;50.948;6.590;2024-02-15T04:28:40;15.90;99.90
74171;DHT22;62526;50.948;6.590;2024-02-15T04:31:07;15.90;99.90
74171;DHT22;62526;50.948;6.590;2024-02-15T04:33:34;15.90;99.90
74171;DHT22;62526;50.948;6.590;2024-02-15T04:36:02;15.90;99.90
74171;DHT22;62526;50.948;6.590;2024-02-15T04:38:31;15.90;99.90
74171;DHT22;62526;50.948;6.590;2024-02-15T04:40:59;15.90;99.90
74171;DHT22;62526;50.948;6.590;2024-02-15T04:43:26;16.00;99.90
74171;DHT22;62526;50.948;6.590;2024-02-15T04:45:52;16.10;99.90
74171;DHT22;62526;50.948;6.590;2024-02-15T04:48:20;16.10;99.90
74171;DHT22;62526;50.948;6.590;2024-02-15T04:50:46;16.10;99.90
74171;DHT22;62526;50.948;6.590;2024-02-15T04:53:13;16.10;99.90
74171;DHT22;62526;50.948;6.590;2024-02-15T04:55:41;16.10;99.90
74171;DHT22;62526;50.948;6.590;2024-02-15T04:58:08;16.00;99.90
74171;DHT22;62526;50.948;6.590;2024-02-15T05:00:35;16.00;99.90
74171;DHT22;62526;50.948;6.590;2024-02-15T05:03:01;16.00;99.90
74171;DHT22;62526;50.948;6.590;2024-02-15T05:05:29;16.00;99.90
74171;DHT22;62526;50.948;6.590;2024-02-15T05:07:55;16.10;99.90
74171;DHT22;62526;50.948;6.590;2024-02-15T05:10:23;16.10;99.90
74171;DHT22;62526;50.948;6.590;2024-02-15T05:12:50;16.10;99.90
74171;DHT22;62526;50.948;6.590;2024-02-15T05:15:17;16.10;99.90
74171;DHT22;62526;50.948;6.590;2024-02-15T05:17:45;16.10;99.90
74171;DHT22;62526;50.948;6.590;2024-02-15T05:20:15;16.20;99.90
74171;DHT22;62526;50.948;6.590;2024-02-15T05:22:41;16.20;99.90
74171;DHT22;62526;50.948;6.590;2024-02-15T05:25:10;16.20;99.90
74171;DHT22;62526;50.948;6.590;2024-02-15T05:27:37;16.20;99.90
74171;DHT22;62526;50.948;6.590;2024-02-15T05:30:04;16.20;99.90
74171;DHT22;62526;50.948;6.590;2024-02-15T05:32:33;16.20;99.90
74171;DHT22;62526;50.948;6.590;2024-02-15T05:35:00;16.20;99.90
74171;DHT22;62526;50.948;6.590;2024-02-15T05:37:26;16.20;99.90
74171;DHT22;62526;50.948;6.590;2024-02-15T05:39:54;16.20;99.90
74171;DHT22;62526;50.948;6.590;2024-02-15T05:42:21;16.30;99.90
74171;DHT22;62526;50.948;6.590;2024-02-15T05:44:48;16.30;99.90
74171;DHT22;62526;50.948;6.590;2024-02-15T05:47:15;16.30;99.90
74171;DHT22;62526;50.948;6.590;2024-02-15T05:49:42;16.30;99.90
74171;DHT22;62526;50.948;6.590;2024-02-15T05:52:10;16.20;99.90
74171;DHT22;62526;50.948;6.590;2024-02-15T05:54:36;16.20;99.90
74171;DHT22;62526;50.948;6.590;2024-02-15T05:57:04;16.20;99.90
74171;DHT22;62526;50.948;6.590;2024-02-15T05:59:30;16.20;99.90
74171;DHT22;62526;50.948;6.590;2024-02-15T06:01:57;16.10;99.90
74171;DHT22;62526;50.948;6.590;2024-02-15T06:04:24;16.00;99.90
74171;DHT22;62526;50.948;6.590;2024-02-15T06:06:51;16.00;99.90
74171;DHT22;62526;50.948;6.590;2024-02-15T06:09:18;16.00;99.90
74171;DHT22;62526;50.948;6.590;2024-02-15T06:11:45;15.90;99.90
74171;DHT22;62526;50.948;6.590;2024-02-15T06:14:12;15.90;99.90
74171;DHT22;62526;50.948;6.590;2024-02-15T06:16:43;16.00;99.90
74171;DHT22;62526;50.948;6.590;2024-02-15T06:19:10;15.90;99.90
74171;DHT22;62526;50.948;6.590;2024-02-15T06:21:37;15.90;99.90
74171;DHT22;62526;50.948;6.590;2024-02-15T06:24:04;15.90;99.90
74171;DHT22;62526;50.948;6.590;2024-02-15T06:26:31;15.90;99.90
74171;DHT22;62526;50.948;6.590;2024-02-15T06:28:58;15.80;99.90
74171;DHT22;62526;50.948;6.590;2024-02-15T06:31:30;15.80;99.90
74171;DHT22;62526;50.948;6.590;2024-02-15T06:34:03;15.80;99.90
74171;DHT22;62526;50.948;6.590;2024-02-15T06:36:40;15.80;99.90
74171;DHT22;62526;50.948;6.590;2024-02-15T06:39:13;15.80;99.90
74171;DHT22;62526;50.948;6.590;2024-02-15T06:41:46;15.80;99.90
74171;DHT22;62526;50.948;6.590;2024-02-15T06:44:13;15.90;99.90
74171;DHT22;62526;50.948;6.590;2024-02-15T06:46:40;16.00;99.90
74171;DHT22;62526;50.948;6.590;2024-02-15T06:49:07;16.00;99.90
74171;DHT22;62526;50.948;6.590;2024-02-15T06:51:34;16.00;99.90
74171;DHT22;62526;50.948;6.590;2024-02-15T06:54:02;16.00;99.90
74171;DHT22;62526;50.948;6.590;2024-02-15T06:56:28;16.00;99.90
74171;DHT22;62526;50.948;6.590;2024-02-15T06:58:56;16.00;99.90
74171;DHT22;62526;50.948;6.590;2024-02-15T07:01:23;15.90;99.90
74171;DHT22;62526;50.948;6.590;2024-02-15T07:03:51;15.90;99.90
74171;DHT22;62526;50.948;6.590;2024-02-15T07:06:17;15.90;99.90
74171;DHT22;62526;50.948;6.590;2024-02-15T07:08:45;15.90;99.90
74171;DHT22;62526;50.948;6.590;2024-02-15T07:11:11;15.80;99.90
74171;DHT22;62526;50.948;6.590;2024-02-15T07:13:39;15.80;99.90
74171;DHT22;62526;50.948;6.590;2024-02-15T07:16:07;15.80;99.90
74171;DHT22;62526;50.948;6.590;2024-02-15T07:18:34;15.80;99.90
74171;DHT22;62526;50.948;6.590;2024-02-15T07:21:02;15.80;99.90
74171;DHT22;62526;50.948;6.590;2024-02-15T07:23:29;15.80;99.90
74171;DHT22;62526;50.948;6.590;2024-02-15T07:25:56;15.70;99.90
74171;DHT22;62526;50.948;6.590;2024-02-15T07:28:23;15.70;99.90
74171;DHT22;62526;50.948;6.590;2024-02-15T07:30:52;15.70;99.90
74171;DHT22;62526;50.948;6.590;2024-02-15T07:33:19;15.70;99.90
74171;DHT22;62526;50.948;6.590;2024-02-15T07:35:47;13.90;99.90
74171;DHT22;62526;50.948;6.590;2024-02-15T07:38:14;15.70;99.90
74171;DHT22;62526;50.948;6.590;2024-02-15T07:40:41;15.70;99.90
74171;DHT22;62526;50.948;6.590;2024-02-15T07:43:08;15.70;99.90
74171;DHT22;62526;50.948;6.590;2024-02-15T07:45:35;15.80;99.90
74171;DHT22;62526;50.948;6.590;2024-02-15T07:48:04;15.80;99.90
74171;DHT22;62526;50.948;6.590;2024-02-15T07:50:31;15.80;99.90
74171;DHT22;62526;50.948;6.590;2024-02-15T07:52:58;15.80;99.90
74171;DHT22;62526;50.948;6.590;2024-02-15T07:55:25;15.90;99.90
74171;DHT22;62526;50.948;6.590;2024-02-15T07:57:52;15.90;99.90
74171;DHT22;62526;50.948;6.590;2024-02-15T08:00:19;15.90;99.90
74171;DHT22;62526;50.948;6.590;2024-02-15T08:02:46;15.90;99.90
74171;DHT22;62526;50.948;6.590;2024-02-15T08:05:12;15.90;99.90
74171;DHT22;62526;50.948;6.590;2024-02-15T08:07:41;15.90;99.90
74171;DHT22;62526;50.948;6.590;2024-02-15T08:10:08;16.00;99.90
74171;DHT22;62526;50.948;6.590;2024-02-15T08:12:35;15.90;99.90
74171;DHT22;62526;50.948;6.590;2024-02-15T08:15:04;15.90;99.90
74171;DHT22;62526;50.948;6.590;2024-02-15T08:17:31;15.90;99.90
74171;DHT22;62526;50.948;6.590;2024-02-15T08:19:58;15.80;99.90
74171;DHT22;62526;50.948;6.590;2024-02-15T08:22:26;15.90;99.90
74171;DHT22;62526;50.948;6.590;2024-02-15T08:24:52;15.90;99.90
74171;DHT22;62526;50.948;6.590;2024-02-15T08:27:20;16.00;99.90
74171;DHT22;62526;50.948;6.590;2024-02-15T08:29:47;16.10;99.90
74171;DHT22;62526;50.948;6.590;2024-02-15T08:32:15;16.20;99.90
74171;DHT22;62526;50.948;6.590;2024-02-15T08:34:41;16.20;99.90
74171;DHT22;62526;50.948;6.590;2024-02-15T08:37:08;16.30;99.90
74171;DHT22;62526;50.948;6.590;2024-02-15T08:39:36;16.40;99.90
74171;DHT22;62526;50.948;6.590;2024-02-15T08:42:03;16.40;99.90
74171;DHT22;62526;50.948;6.590;2024-02-15T08:44:30;16.50;99.90
74171;DHT22;62526;50.948;6.590;2024-02-15T08:46:57;16.50;99.90
74171;DHT22;62526;50.948;6.590;2024-02-15T08:49:24;16.50;99.90
74171;DHT22;62526;50.948;6.590;2024-02-15T08:51:52;17.30;99.90
74171;DHT22;62526;50.948;6.590;2024-02-15T08:54:25;16.60;99.90
74171;DHT22;62526;50.948;6.590;2024-02-15T08:57:07;16.70;99.90
74171;DHT22;62526;50.948;6.590;2024-02-15T08:59:36;16.70;99.90
74171;DHT22;62526;50.948;6.590;2024-02-15T09:02:03;16.80;99.90
74171;DHT22;62526;50.948;6.590;2024-02-15T09:04:30;16.80;99.90
74171;DHT22;62526;50.948;6.590;2024-02-15T09:06:57;16.90;99.90
74171;DHT22;62526;50.948;6.590;2024-02-15T09:09:24;16.90;99.90
74171;DHT22;62526;50.948;6.590;2024-02-15T09:11:52;17.00;99.90
74171;DHT22;62526;50.948;6.590;2024-02-15T09:14:19;17.10;99.90
74171;DHT22;62526;50.948;6.590;2024-02-15T09:16:46;17.20;99.90
74171;DHT22;62526;50.948;6.590;2024-02-15T09:19:13;17.20;99.90
74171;DHT22;62526;50.948;6.590;2024-02-15T09:21:40;17.30;99.90
74171;DHT22;62526;50.948;6.590;2024-02-15T09:24:07;17.40;99.90
74171;DHT22;62526;50.948;6.590;2024-02-15T09:26:34;17.40;99.90
74171;DHT22;62526;50.948;6.590;2024-02-15T09:29:01;17.50;99.90
74171;DHT22;62526;50.948;6.590;2024-02-15T09:31:28;17.60;99.90
74171;DHT22;62526;50.948;6.590;2024-02-15T09:33:55;17.60;99.90
74171;DHT22;62526;50.948;6.590;2024-02-15T09:36:22;17.70;99.90
74171;DHT22;62526;50.948;6.590;2024-02-15T09:38:49;17.80;99.90
74171;DHT22;62526;50.948;6.590;2024-02-15T09:41:16;17.90;99.90
74171;DHT22;62526;50.948;6.590;2024-02-15T09:43:43;17.90;99.90
74171;DHT22;62526;50.948;6.590;2024-02-15T09:46:09;17.90;99.90
74171;DHT22;62526;50.948;6.590;2024-02-15T09:48:37;17.90;99.90
74171;DHT22;62526;50.948;6.590;2024-02-15T09:51:04;17.90;99.90
74171;DHT22;62526;50.948;6.590;2024-02-15T09:53:32;17.90;99.90
74171;DHT22;62526;50.948;6.590;2024-02-15T09:55:59;17.90;99.90
74171;DHT22;62526;50.948;6.590;2024-02-15T09:58:26;17.90;99.90
74171;DHT22;62526;50.948;6.590;2024-02-15T10:00:53;17.90;99.90
74171;DHT22;62526;50.948;6.590;2024-02-15T10:03:21;17.90;99.90
74171;DHT22;62526;50.948;6.590;2024-02-15T10:05:48;17.90;99.90
74171;DHT22;62526;50.948;6.590;2024-02-15T10:08:16;18.00;99.90
74171;DHT22;62526;50.948;6.590;2024-02-15T10:10:43;18.00;99.90
74171;DHT22;62526;50.948;6.590;2024-02-15T10:13:13;18.00;99.90
74171;DHT22;62526;50.948;6.590;2024-02-15T10:15:41;18.00;99.90
74171;DHT22;62526;50.948;6.590;2024-02-15T10:18:08;18.10;99.90
74171;DHT22;62526;50.948;6.590;2024-02-15T10:20:35;18.20;99.90
74171;DHT22;62526;50.948;6.590;2024-02-15T10:23:17;18.30;99.90
74171;DHT22;62526;50.948;6.590;2024-02-15T10:25:44;18.30;99.90
74171;DHT22;62526;50.948;6.590;2024-02-15T10:28:11;18.30;99.90
74171;DHT22;62526;50.948;6.590;2024-02-15T10:30:39;18.40;99.90
74171;DHT22;62526;50.948;6.590;2024-02-15T10:33:05;18.40;99.90
74171;DHT22;62526;50.948;6.590;2024-02-15T10:35:33;18.50;99.90
74171;DHT22;62526;50.948;6.590;2024-02-15T10:38:05;18.60;99.90
74171;DHT22;62526;50.948;6.590;2024-02-15T10:40:31;18.60;99.90
74171;DHT22;62526;50.948;6.590;2024-02-15T10:42:58;18.80;99.90
74171;DHT22;62526;50.948;6.590;2024-02-15T10:45:26;18.80;99.90
74171;DHT22;62526;50.948;6.590;2024-02-15T10:47:59;18.80;99.90
74171;DHT22;62526;50.948;6.590;2024-02-15T10:50:26;18.90;99.90
74171;DHT22;62526;50.948;6.590;2024-02-15T10:52:54;19.00;99.90
74171;DHT22;62526;50.948;6.590;2024-02-15T10:55:26;19.10;99.90
74171;DHT22;62526;50.948;6.590;2024-02-15T10:57:50;19.20;99.90
74171;DHT22;62526;50.948;6.590;2024-02-15T11:00:17;19.30;99.90
74171;DHT22;62526;50.948;6.590;2024-02-15T11:03:04;19.40;99.90
74171;DHT22;62526;50.948;6.590;2024-02-15T11:05:33;19.50;99.90
74171;DHT22;62526;50.948;6.590;2024-02-15T11:08:00;19.60;99.90
74171;DHT22;62526;50.948;6.590;2024-02-15T11:10:26;19.80;99.90
74171;DHT22;62526;50.948;6.590;2024-02-15T11:12:53;19.90;99.90
74171;DHT22;62526;50.948;6.590;2024-02-15T11:15:46;20.00;99.90
74171;DHT22;62526;50.948;6.590;2024-02-15T11:21:08;20.10;99.90
74171;DHT22;62526;50.948;6.590;2024-02-15T11:23:35;20.30;99.90
74171;DHT22;62526;50.948;6.590;2024-02-15T11:26:02;20.50;99.90
74171;DHT22;62526;50.948;6.590;2024-02-15T11:28:36;20.50;99.90
74171;DHT22;62526;50.948;6.590;2024-02-15T11:31:03;20.70;99.90
74171;DHT22;62526;50.948;6.590;2024-02-15T11:33:32;20.80;99.90
74171;DHT22;62526;50.948;6.590;2024-02-15T11:36:06;20.90;99.90
74171;DHT22;62526;50.948;6.590;2024-02-15T11:38:32;21.00;99.90
74171;DHT22;62526;50.948;6.590;2024-02-15T11:41:01;21.10;99.90
74171;DHT22;62526;50.948;6.590;2024-02-15T11:43:47;21.20;99.90
74171;DHT22;62526;50.948;6.590;2024-02-15T11:46:16;21.20;99.80
74171;DHT22;62526;50.948;6.590;2024-02-15T11:48:44;21.30;99.50
74171;DHT22;62526;50.948;6.590;2024-02-15T11:51:11;21.30;99.70
74171;DHT22;62526;50.948;6.590;2024-02-15T11:53:38;21.40;99.10
74171;DHT22;62526;50.948;6.590;2024-02-15T11:56:05;21.40;98.90
74171;DHT22;62526;50.948;6.590;2024-02-15T11:58:32;21.40;98.70
74171;DHT22;62526;50.948;6.590;2024-02-15T12:00:59;21.40;98.80
74171;DHT22;62526;50.948;6.590;2024-02-15T12:03:32;21.50;99.00
74171;DHT22;62526;50.948;6.590;2024-02-15T12:06:04;21.50;98.80
74171;DHT22;62526;50.948;6.590;2024-02-15T12:08:37;21.60;98.20
74171;DHT22;62526;50.948;6.590;2024-02-15T12:11:09;21.60;98.30
74171;DHT22;62526;50.948;6.590;2024-02-15T12:13:41;21.60;98.70
74171;DHT22;62526;50.948;6.590;2024-02-15T12:16:15;21.60;98.30
74171;DHT22;62526;50.948;6.590;2024-02-15T12:18:47;21.50;97.90
74171;DHT22;62526;50.948;6.590;2024-02-15T12:21:16;21.60;98.00
74171;DHT22;62526;50.948;6.590;2024-02-15T12:23:42;21.60;97.80
74171;DHT22;62526;50.948;6.590;2024-02-15T12:26:09;21.60;98.00
74171;DHT22;62526;50.948;6.590;2024-02-15T12:28:36;21.70;97.30
74171;DHT22;62526;50.948;6.590;2024-02-15T12:31:03;21.70;97.50
74171;DHT22;62526;50.948;6.590;2024-02-15T12:33:30;21.60;96.80
74171;DHT22;62526;50.948;6.590;2024-02-15T12:36:04;21.60;96.60
74171;DHT22;62526;50.948;6.590;2024-02-15T12:38:31;21.60;96.40
74171;DHT22;62526;50.948;6.590;2024-02-15T12:40:58;21.60;96.80
74171;DHT22;62526;50.948;6.590;2024-02-15T12:43:25;21.50;96.40
74171;DHT22;62526;50.948;6.590;2024-02-15T12:45:52;21.50;96.20
74171;DHT22;62526;50.948;6.590;2024-02-15T12:48:20;21.40;95.90
74171;DHT22;62526;50.948;6.590;2024-02-15T12:50:47;21.40;96.10
74171;DHT22;62526;50.948;6.590;2024-02-15T12:53:22;21.40;96.00
74171;DHT22;62526;50.948;6.590;2024-02-15T12:55:53;21.30;96.20
74171;DHT22;62526;50.948;6.590;2024-02-15T12:58:19;21.30;96.50
74171;DHT22;62526;50.948;6.590;2024-02-15T13:00:46;21.30;96.30
74171;DHT22;62526;50.948;6.590;2024-02-15T13:03:14;21.40;97.00
74171;DHT22;62526;50.948;6.590;2024-02-15T13:05:41;21.40;96.80
74171;DHT22;62526;50.948;6.590;2024-02-15T13:08:08;21.40;97.10
74171;DHT22;62526;50.948;6.590;2024-02-15T13:10:37;21.40;96.60
74171;DHT22;62526;50.948;6.590;2024-02-15T13:13:04;21.30;96.50
74171;DHT22;62526;50.948;6.590;2024-02-15T13:15:31;21.30;96.40
74171;DHT22;62526;50.948;6.590;2024-02-15T13:17:59;21.30;96.60
74171;DHT22;62526;50.948;6.590;2024-02-15T13:20:26;21.30;96.80
74171;DHT22;62526;50.948;6.590;2024-02-15T13:22:59;21.40;96.20
74171;DHT22;62526;50.948;6.590;2024-02-15T13:25:26;21.40;96.20
74171;DHT22;62526;50.948;6.590;2024-02-15T13:27:53;21.50;96.10
74171;DHT22;62526;50.948;6.590;2024-02-15T13:30:21;21.60;96.10
74171;DHT22;62526;50.948;6.590;2024-02-15T13:32:48;21.80;96.20
74171;DHT22;62526;50.948;6.590;2024-02-15T13:35:15;21.90;95.90
74171;DHT22;62526;50.948;6.590;2024-02-15T13:37:42;22.00;95.50
74171;DHT22;62526;50.948;6.590;2024-02-15T13:40:10;22.00;95.70
74171;DHT22;62526;50.948;6.590;2024-02-15T13:42:36;22.00;95.90
74171;DHT22;62526;50.948;6.590;2024-02-15T13:45:03;22.00;95.30
74171;DHT22;62526;50.948;6.590;2024-02-15T13:47:30;22.00;95.10
74171;DHT22;62526;50.948;6.590;2024-02-15T13:49:56;21.90;95.30
74171;DHT22;62526;50.948;6.590;2024-02-15T13:52:23;22.00;95.70
74171;DHT22;62526;50.948;6.590;2024-02-15T13:54:50;22.10;95.20
74171;DHT22;62526;50.948;6.590;2024-02-15T13:57:18;22.10;94.90
74171;DHT22;62526;50.948;6.590;2024-02-15T13:59:45;22.00;94.80
74171;DHT22;62526;50.948;6.590;2024-02-15T14:02:11;22.00;94.40
74171;DHT22;62526;50.948;6.590;2024-02-15T14:04:38;22.00;94.80
74171;DHT22;62526;50.948;6.590;2024-02-15T14:07:05;22.00;94.30
74171;DHT22;62526;50.948;6.590;2024-02-15T14:09:31;21.90;94.70
74171;DHT22;62526;50.948;6.590;2024-02-15T14:11:59;21.80;94.80
74171;DHT22;62526;50.948;6.590;2024-02-15T14:14:26;21.80;94.80
74171;DHT22;62526;50.948;6.590;2024-02-15T14:16:54;21.80;95.00
74171;DHT22;62526;50.948;6.590;2024-02-15T14:19:22;21.70;94.60
74171;DHT22;62526;50.948;6.590;2024-02-15T14:21:49;21.60;94.90
74171;DHT22;62526;50.948;6.590;2024-02-15T14:24:15;21.40;94.70
74171;DHT22;62526;50.948;6.590;2024-02-15T14:26:43;21.10;94.90
74171;DHT22;62526;50.948;6.590;2024-02-15T14:29:09;20.90;95.10
74171;DHT22;62526;50.948;6.590;2024-02-15T14:31:37;20.70;95.50
74171;DHT22;62526;50.948;6.590;2024-02-15T14:34:09;20.50;95.30
74171;DHT22;62526;50.948;6.590;2024-02-15T14:39:15;20.40;96.20
74171;DHT22;62526;50.948;6.590;2024-02-15T14:41:42;20.30;95.90
74171;DHT22;62526;50.948;6.590;2024-02-15T14:44:10;20.30;96.10
74171;DHT22;62526;50.948;6.590;2024-02-15T14:46:36;20.20;96.40
74171;DHT22;62526;50.948;6.590;2024-02-15T14:49:02;20.20;96.70
74171;DHT22;62526;50.948;6.590;2024-02-15T14:51:30;17.10;94.90
74171;DHT22;62526;50.948;6.590;2024-02-15T14:53:57;20.10;95.60
74171;DHT22;62526;50.948;6.590;2024-02-15T14:56:24;20.20;95.90
74171;DHT22;62526;50.948;6.590;2024-02-15T14:58:50;20.30;95.50
74171;DHT22;62526;50.948;6.590;2024-02-15T15:01:17;20.20;95.40
74171;DHT22;62526;50.948;6.590;2024-02-15T15:03:52;20.30;95.70
74171;DHT22;62526;50.948;6.590;2024-02-15T15:06:11;20.40;95.10
74171;DHT22;62526;50.948;6.590;2024-02-15T15:08:44;20.30;95.00
74171;DHT22;62526;50.948;6.590;2024-02-15T15:11:16;20.40;94.90
74171;DHT22;62526;50.948;6.590;2024-02-15T15:13:49;20.40;94.70
74171;DHT22;62526;50.948;6.590;2024-02-15T15:16:16;20.50;94.60
74171;DHT22;62526;50.948;6.590;2024-02-15T15:18:43;20.50;94.70
74171;DHT22;62526;50.948;6.590;2024-02-15T15:21:11;20.50;94.90
74171;DHT22;62526;50.948;6.590;2024-02-15T15:23:38;20.60;95.20
74171;DHT22;62526;50.948;6.590;2024-02-15T15:26:05;20.60;95.40
74171;DHT22;62526;50.948;6.590;2024-02-15T15:28:33;20.60;95.00
74171;DHT22;62526;50.948;6.590;2024-02-15T15:30:59;20.60;95.20
74171;DHT22;62526;50.948;6.590;2024-02-15T15:33:27;20.60;94.90
74171;DHT22;62526;50.948;6.590;2024-02-15T15:35:54;20.60;95.00
74171;DHT22;62526;50.948;6.590;2024-02-15T15:38:21;20.80;95.20
74171;DHT22;62526;50.948;6.590;2024-02-15T15:40:48;21.10;95.20